Item Display Status Humidity-temperature Sensor

Elevation Above Sea Level: 3 m

 

Deployed Sensor

  • Serial Number: 20224933
  • NDBC Property Number: 42150
  • Start Date: 1/26/2023 (14:34:47 Z)
  • End Date: Currently Active
Relative Humidity [%]     6 entries per hour
Showing data from 6/20/2024 (22:00:00 Z) to 6/19/2024 (00:00:01 Z)
Previous Next [ Day | 3-Days | 7-Days ]
First Last
Prev [ Day | 3-Days | 7-Days ] Next
First Last

Start Time:     :
End Time:     :     
Time (in GMT) :00 :50 :40 :30 :20 :10
Previous Next [ Day | 3-Days | 7-Days ]
First Last
Prev [ Day | 3-Days | 7-Days ] Next
First Last


123 => good data
MM => data is determined as missing
-- => data not received/configured
Back to Top Back to Top
6/20/2024 22:00 to 21:10 86.96 87.00 86.72 87.10 87.84 87.74
6/20/2024 21:00 to 20:10 87.70 87.80 87.58 86.86 86.04 85.04
6/20/2024 20:00 to 19:10 84.18 83.23 83.35 83.89 83.67 84.54
6/20/2024 19:00 to 18:10 85.06 85.16 86.00 86.26 86.06 85.90
6/20/2024 18:00 to 17:10 86.14 86.16 85.70 85.50 84.80 84.36
6/20/2024 17:00 to 16:10 83.83 82.97 82.33 82.73 82.93 82.75
6/20/2024 16:00 to 15:10 82.47 81.87 82.29 81.91 82.59 83.89
6/20/2024 15:00 to 14:10 85.30 86.08 86.38 86.20 86.34 87.12
6/20/2024 14:00 to 13:10 87.92 87.82 87.66 87.42 86.48 85.58
6/20/2024 13:00 to 12:10 85.72 85.50 84.28 81.99 80.63 81.03
6/20/2024 12:00 to 11:10 81.27 81.55 79.97 81.09 82.97 83.93
6/20/2024 11:00 to 10:10 85.20 84.94 84.01 84.76 85.72 86.84
6/20/2024 10:00 to 9:10 87.72 88.78 89.69 90.01 90.01 88.08
6/20/2024 09:00 to 8:10 87.44 87.16 85.98 83.63 85.36 86.88
6/20/2024 08:00 to 7:10 86.52 85.90 84.66 87.60 88.34 87.94
6/20/2024 07:00 to 6:10 87.56 87.02 86.28 84.72 84.26 83.89
6/20/2024 06:00 to 5:10 83.35 82.49 81.67 81.65 82.65 82.61
6/20/2024 05:00 to 4:10 83.49 85.48 85.92 85.46 84.80 84.13
6/20/2024 04:00 to 3:10 84.84 85.64 85.02 85.48 84.98 84.64
6/20/2024 03:00 to 2:10 84.52 84.01 84.09 83.87 83.81 84.62
6/20/2024 02:00 to 1:10 84.72 84.90 85.12 86.20 86.28 85.90
6/20/2024 01:00 to 0:10 86.32 86.98 86.68 86.24 86.36 86.62
6/20/2024 00:00 to 23:10 86.64 85.94 85.00 84.80 84.82 84.76
6/19/2024 23:00 to 22:10 83.99 84.05 84.30 84.64 84.80 85.46
6/19/2024 22:00 to 21:10 85.24 85.80 86.04 86.76 87.28 86.76
6/19/2024 21:00 to 20:10 86.56 85.88 85.98 85.70 84.07 83.31
6/19/2024 20:00 to 19:10 83.17 83.81 84.01 84.05 84.72 85.08
6/19/2024 19:00 to 18:10 84.58 84.22 84.96 85.00 85.18 85.10
6/19/2024 18:00 to 17:10 85.28 84.68 84.74 84.20 83.65 83.95
6/19/2024 17:00 to 16:10 84.07 84.30 85.04 85.26 85.66 86.02
6/19/2024 16:00 to 15:10 85.54 84.74 84.42 84.15 83.67 83.41
6/19/2024 15:00 to 14:10 83.21 85.18 84.86 85.10 85.76 84.90
6/19/2024 14:00 to 13:10 84.32 84.54 83.93 83.11 82.71 82.25
6/19/2024 13:00 to 12:10 81.89 82.51 83.05 83.45 82.99 82.39
6/19/2024 12:00 to 11:10 81.47 81.63 81.91 82.47 82.29 82.57
6/19/2024 11:00 to 10:10 83.45 84.09 84.28 85.26 85.62 85.90
6/19/2024 10:00 to 9:10 86.52 87.04 87.82 88.72 89.12 89.24
6/19/2024 09:00 to 8:10 89.62 89.71 89.54 89.81 89.69 89.75
6/19/2024 08:00 to 7:10 89.65 89.42 88.76 87.50 86.92 86.98
6/19/2024 07:00 to 6:10 88.66 88.72 87.74 89.40 89.46 89.42
6/19/2024 06:00 to 5:10 89.12 89.18 87.94 85.50 85.28 85.88
6/19/2024 05:00 to 4:10 87.64 88.72 90.81 92.07 92.03 91.59
6/19/2024 04:00 to 3:10 90.89 89.16 86.68 87.56 87.36 87.16
6/19/2024 03:00 to 2:10 87.36 86.54 84.20 85.00 86.90 85.12
6/19/2024 02:00 to 1:10 84.22 84.46 84.74 85.00 86.54 88.38
6/19/2024 01:00 to 0:10 89.60 89.08 89.14 89.32 89.26 89.08

 

 

 

Air Temperature [°C]     6 entries per hour
Showing data from 6/20/2024 (22:00:00 Z) to 6/19/2024 (00:00:01 Z)
Previous Next [ Day | 3-Days | 7-Days ]
First Last
Prev [ Day | 3-Days | 7-Days ] Next
First Last

Start Time:     :
End Time:     :     
Time (in GMT) :00 :50 :40 :30 :20 :10
Previous Next [ Day | 3-Days | 7-Days ]
First Last
Prev [ Day | 3-Days | 7-Days ] Next
First Last


123 => good data
MM => data is determined as missing
-- => data not received/configured
Back to Top Back to Top
6/20/2024 22:00 to 21:10 23.96 23.85 23.83 23.82 23.87 23.75
6/20/2024 21:00 to 20:10 23.85 23.85 23.85 23.97 24.13 24.01
6/20/2024 20:00 to 19:10 24.16 24.09 24.02 24.04 24.02 23.90
6/20/2024 19:00 to 18:10 24.03 24.00 23.85 23.95 23.88 23.90
6/20/2024 18:00 to 17:10 23.84 23.87 23.92 24.01 24.03 24.04
6/20/2024 17:00 to 16:10 24.12 24.11 24.03 24.02 23.97 24.14
6/20/2024 16:00 to 15:10 24.17 24.08 24.05 24.02 23.89 23.81
6/20/2024 15:00 to 14:10 23.65 23.80 23.77 23.68 23.69 23.52
6/20/2024 14:00 to 13:10 23.51 23.64 23.52 23.83 23.70 23.65
6/20/2024 13:00 to 12:10 23.54 23.80 23.87 24.01 23.86 23.72
6/20/2024 12:00 to 11:10 23.78 23.74 23.77 23.34 23.42 23.35
6/20/2024 11:00 to 10:10 23.46 23.36 23.41 23.05 22.95 22.88
6/20/2024 10:00 to 9:10 22.67 22.73 22.73 22.41 22.35 22.77
6/20/2024 09:00 to 8:10 23.57 23.80 23.91 23.86 23.47 23.42
6/20/2024 08:00 to 7:10 23.76 24.22 23.56 23.06 23.95 23.95
6/20/2024 07:00 to 6:10 23.94 24.02 24.23 24.10 24.06 24.19
6/20/2024 06:00 to 5:10 24.19 24.27 24.22 24.11 23.95 24.03
6/20/2024 05:00 to 4:10 23.89 23.59 23.65 23.81 24.22 24.02
6/20/2024 04:00 to 3:10 23.88 24.03 24.10 24.10 24.18 24.10
6/20/2024 03:00 to 2:10 24.07 24.08 24.05 24.10 24.03 23.88
6/20/2024 02:00 to 1:10 23.89 23.95 23.86 23.82 23.87 23.89
6/20/2024 01:00 to 0:10 23.69 23.74 23.88 23.80 23.77 23.80
6/20/2024 00:00 to 23:10 23.79 23.96 23.89 24.00 23.82 24.00
6/19/2024 23:00 to 22:10 24.11 24.02 23.87 23.94 23.89 23.97
6/19/2024 22:00 to 21:10 23.96 23.69 23.79 23.62 23.66 23.68
6/19/2024 21:00 to 20:10 23.87 23.89 23.87 24.02 24.24 24.00
6/19/2024 20:00 to 19:10 23.90 24.02 23.95 23.99 23.79 23.97
6/19/2024 19:00 to 18:10 24.01 23.82 24.02 23.97 23.99 23.96
6/19/2024 18:00 to 17:10 23.87 23.90 23.83 23.92 23.89 23.93
6/19/2024 17:00 to 16:10 23.80 23.83 23.81 23.74 23.68 23.72
6/19/2024 16:00 to 15:10 23.89 23.93 23.91 23.98 23.86 24.01
6/19/2024 15:00 to 14:10 23.85 23.92 23.97 23.77 23.77 24.01
6/19/2024 14:00 to 13:10 24.01 24.01 24.13 23.87 24.15 24.05
6/19/2024 13:00 to 12:10 23.81 23.91 23.75 23.73 23.70 23.77
6/19/2024 12:00 to 11:10 23.85 23.62 23.75 23.54 23.67 23.62
6/19/2024 11:00 to 10:10 23.55 23.53 23.54 23.35 23.33 23.31
6/19/2024 10:00 to 9:10 23.18 23.13 23.22 23.37 23.35 23.46
6/19/2024 09:00 to 8:10 23.36 23.36 23.33 23.34 23.34 23.24
6/19/2024 08:00 to 7:10 23.39 23.40 23.60 23.57 23.52 23.40
6/19/2024 07:00 to 6:10 23.12 23.03 23.14 22.61 23.17 23.04
6/19/2024 06:00 to 5:10 23.13 23.15 23.18 23.54 23.47 23.32
6/19/2024 05:00 to 4:10 23.19 22.74 22.50 22.56 22.70 22.76
6/19/2024 04:00 to 3:10 22.86 23.18 23.57 23.61 23.54 23.68
6/19/2024 03:00 to 2:10 23.64 23.62 23.84 23.01 23.27 23.73
6/19/2024 02:00 to 1:10 23.81 23.74 23.78 23.56 23.52 23.46
6/19/2024 01:00 to 0:10 23.47 23.52 23.47 23.50 23.38 23.35